EDT,Max TemperatureF,Mean TemperatureF,Min TemperatureF,Max Dew PointF,MeanDew PointF,Min DewpointF,Max Humidity, Mean Humidity, Min Humidity, Max Sea Level PressureIn, Mean Sea Level PressureIn, Min Sea Level PressureIn, Max VisibilityMiles, Mean VisibilityMiles, Min VisibilityMiles, Max Wind SpeedMPH, Mean Wind SpeedMPH, Max Gust SpeedMPH,PrecipitationIn, CloudCover, Events, WindDirDegrees
2013-3-1,45,38,30,28,26,24,76,60,44,29.90,29.87,29.83,10,10,10,9,5,,0.08,7,,300
2013-3-2,45,39,30,34,28,17,89,70,39,29.91,29.86,29.79,10,9,2,10,2,18,0.01,7,Rain-Snow,312
2013-3-3,42,34,25,17,15,13,66,50,34,29.97,29.92,29.87,10,10,10,14,5,20,0.00,0,,318
2013-3-4,54,40,26,18,13,6,56,36,15,30.10,30.03,29.96,10,10,10,8,3,,0.00,0,,247
2013-3-5,44,40,37,40,36,18,100,84,35,30.00,29.78,29.60,10,6,1,14,3,,0.61,7,Rain,16
2013-3-6,44,38,32,37,24,18,93,61,41,30.09,29.81,29.60,10,10,3,23,10,34,0.00,2,,312
2013-3-7,53,40,28,25,23,21,78,57,34,30.24,30.16,30.09,10,10,10,12,5,16,0.00,0,,335
2013-3-8,54,39,24,24,22,19,88,53,28,30.30,30.24,30.19,10,10,9,14,3,21,0.00,0,,317
2013-3-9,61,44,28,32,26,23,82,50,26,30.33,30.26,30.20,10,10,10,6,2,,0.00,1,,354
2013-3-10,64,52,39,35,32,30,83,48,30,30.26,30.19,30.13,10,10,9,10,2,18,0.00,1,,97
2013-3-11,64,54,44,50,41,27,96,69,43,30.14,29.97,29.83,10,8,2,14,2,25,0.50,7,Rain,240
2013-3-12,63,52,43,55,44,28,100,76,32,29.95,29.81,29.69,10,6,2,12,3,20,0.71,5,Rain,325
2013-3-13,53,43,34,27,21,13,57,42,30,30.13,30.03,29.96,10,10,10,21,8,29,0.00,1,,305
2013-3-14,52,40,28,16,13,10,56,36,19,30.26,30.18,30.13,10,10,10,13,6,23,0.00,0,,317
2013-3-15,64,48,32,36,26,15,56,40,31,30.16,30.02,29.86,10,10,10,16,6,23,0.00,1,,206
2013-3-16,79,64,51,45,42,36,63,44,29,29.83,29.76,29.65,10,10,10,17,7,25,0.00,2,,216
2013-3-17,69,55,41,51,43,37,86,66,48,30.12,29.93,29.81,10,10,7,14,5,23,0.00,3,,63
2013-3-18,39,38,37,37,36,35,93,92,87,30.14,30.01,29.84,10,5,1,10,6,17,0.37,8,Rain,47
2013-3-19,62,50,37,39,30,10,100,70,17,30.03,29.88,29.81,10,5,0,17,5,29,0.00,2,Fog,287
2013-3-20,57,46,37,22,12,9,45,27,17,30.08,29.93,29.78,10,10,10,12,5,23,0.00,2,,278
2013-3-21,43,35,28,24,9,3,55,35,27,29.95,29.84,29.77,10,10,10,15,8,23,0.00,0,,323
2013-3-22,51,36,23,22,15,11,63,42,25,30.05,29.98,29.93,10,10,10,10,4,16,0.00,3,,205
2013-3-23,59,47,37,38,29,21,79,55,38,30.02,29.94,29.86,10,10,10,6,1,,0.00,5,Rain,20
2013-3-24,45,41,37,42,38,35,93,89,80,29.86,29.68,29.52,10,5,1,13,5,22,0.60,8,Rain,41
2013-3-25,46,39,33,36,28,19,100,70,38,29.85,29.63,29.52,10,9,5,22,5,34,0.02,6,Rain,274
2013-3-26,46,37,28,23,21,20,72,54,39,30.15,29.97,29.85,10,10,10,14,7,22,0.00,5,,303
2013-3-27,48,40,33,23,20,18,66,47,32,30.23,30.19,30.14,10,10,10,13,5,21,0.00,2,,314
2013-3-28,55,41,28,26,20,18,67,43,25,30.27,30.23,30.17,10,10,10,12,4,18,0.00,0,,331
2013-3-29,61,45,30,34,26,20,79,50,21,30.31,30.24,30.17,10,10,10,8,2,18,0.00,3,,278
2013-3-30,63,52,42,39,35,28,79,53,33,30.20,30.11,30.01,10,10,10,8,3,,0.00,3,,311
2013-3-31,66,57,48,54,49,39,100,86,57,30.00,29.88,29.78,10,6,1,13,2,21,0.45,7,Rain,215